Terminal Aerodrome Forecast
Issued by NWS Shreveport, LA

Home | Current Version | Previous Version | Text Only | Print | Product List | Glossary On
Versions: 1 2 3 4 5 6 7 8 9 10 11 12 13 14 15 16 17 18 19 20 21
657
FTUS44 KSHV 181958 AAB
TAFLFK
TAF AMD
KLFK 181958Z 1820/1918 VRB04KT 2SM -RA BR VCTS OVC004CB
      TEMPO 1820/1822 -TSRA
     FM182200 17004KT 6SM -RA BR SCT008 OVC013
     FM191600 21005KT 5SM BR OVC009=

USA.gov is the U.S. government's official web portal to all federal, state and local government web resources and services.